createdAt,value
2023-05-13T00:03:18.158Z,8.63
2023-05-13T00:08:23.673Z,9.38
2023-05-13T00:13:27.919Z,7.07
2023-05-13T00:18:32.040Z,6.25
2023-05-13T00:23:38.027Z,11.40
2023-05-13T00:28:42.077Z,6.97
2023-05-13T00:33:46.104Z,8.95
2023-05-13T00:38:51.474Z,8.27
2023-05-13T00:43:57.006Z,9.05
2023-05-13T00:49:01.244Z,7.53
2023-05-13T00:54:06.935Z,6.80
2023-05-13T00:59:11.363Z,8.87
2023-05-13T01:04:28.996Z,7.68
2023-05-13T01:09:49.852Z,7.40
2023-05-13T01:15:00.885Z,6.22
2023-05-13T01:20:06.393Z,7.05
2023-05-13T01:25:12.006Z,6.30
2023-05-13T01:30:16.499Z,6.55
2023-05-13T01:35:22.256Z,6.63
2023-05-13T01:40:32.822Z,7.28
2023-05-13T01:45:43.046Z,6.80
2023-05-13T01:50:49.231Z,5.70
2023-05-13T01:55:54.707Z,6.50
2023-05-13T02:00:59.069Z,5.75
2023-05-13T02:06:03.200Z,4.50
2023-05-13T02:11:08.724Z,8.90
2023-05-13T02:16:15.703Z,7.32
2023-05-13T02:26:25.077Z,7.68
2023-05-13T02:31:29.233Z,5.07
2023-05-13T02:36:33.445Z,7.15
2023-05-13T02:41:39.587Z,5.05
2023-05-13T02:46:44.887Z,5.10
2023-05-13T02:51:48.928Z,5.75
2023-05-13T02:56:57.874Z,8.63
2023-05-13T03:02:01.999Z,7.03
2023-05-13T03:07:06.437Z,9.35
2023-05-13T03:12:11.916Z,5.72
2023-05-13T03:17:16.040Z,7.53
2023-05-13T03:22:20.702Z,8.88
2023-05-13T03:27:26.323Z,6.28
2023-05-13T03:32:32.099Z,5.82
2023-05-13T03:37:37.421Z,5.72
2023-05-13T03:42:44.242Z,5.97
2023-05-13T03:47:49.708Z,5.18
2023-05-13T03:52:55.200Z,6.28
2023-05-13T03:58:01.478Z,6.88
2023-05-13T04:03:06.258Z,9.90
2023-05-13T04:08:11.317Z,6.72
2023-05-13T04:13:16.834Z,6.40
2023-05-13T04:18:20.896Z,6.80
2023-05-13T04:23:25.011Z,7.55
2023-05-13T04:28:30.458Z,10.50
2023-05-13T04:38:40.326Z,5.20
2023-05-13T04:43:46.060Z,12.65
2023-05-13T04:48:50.262Z,13.55
2023-05-13T04:53:56.150Z,8.75
2023-05-13T04:59:01.766Z,6.15
2023-05-13T05:04:07.320Z,8.98
2023-05-13T05:14:18.159Z,7.35
2023-05-13T05:19:24.273Z,7.45
2023-05-13T05:24:30.391Z,6.67
2023-05-13T05:29:36.007Z,7.55
2023-05-13T05:34:40.335Z,9.10
2023-05-13T05:39:47.216Z,7.68
2023-05-13T05:44:52.888Z,6.90
2023-05-13T05:49:57.122Z,7.35
2023-05-13T05:55:03.172Z,7.93
2023-05-13T06:00:11.426Z,7.95
2023-05-13T06:05:21.573Z,8.25
2023-05-13T06:10:25.680Z,6.68
2023-05-13T06:15:31.934Z,8.93
2023-05-13T06:20:36.077Z,8.77
2023-05-13T06:25:40.137Z,7.65
2023-05-13T06:30:46.363Z,8.25
2023-05-13T06:35:50.477Z,7.50
2023-05-13T06:40:57.186Z,10.48
2023-05-13T06:46:11.865Z,8.77
2023-05-13T06:51:16.232Z,8.40
2023-05-13T06:56:20.537Z,8.75
2023-05-13T07:01:27.240Z,7.70
2023-05-13T07:06:32.099Z,12.07
2023-05-13T07:11:36.261Z,11.80
2023-05-13T07:16:41.696Z,10.35
2023-05-13T07:21:45.781Z,10.35
2023-05-13T07:26:49.836Z,9.88
2023-05-13T07:31:55.229Z,9.18
2023-05-13T07:36:59.309Z,11.63
2023-05-13T07:42:05.046Z,11.13
2023-05-13T07:47:11.128Z,13.35
2023-05-13T07:52:15.632Z,7.53
2023-05-13T07:57:19.708Z,7.70
2023-05-13T08:02:25.589Z,11.75
2023-05-13T08:07:30.670Z,8.63
2023-05-13T08:12:34.745Z,8.93
2023-05-13T08:17:40.157Z,8.35
2023-05-13T08:22:44.846Z,9.63
2023-05-13T08:27:48.873Z,9.38
2023-05-13T08:32:54.358Z,11.20
2023-05-13T08:37:58.513Z,9.90
2023-05-13T08:43:05.085Z,11.15
2023-05-13T08:48:11.381Z,8.50
2023-05-13T08:53:18.322Z,8.88
2023-05-13T09:03:30.081Z,9.32
2023-05-13T09:08:34.843Z,8.43
2023-05-13T09:13:38.997Z,8.45
2023-05-13T09:18:44.829Z,9.63
2023-05-13T09:23:48.891Z,7.65
2023-05-13T09:29:29.244Z,8.52
2023-05-13T09:34:36.239Z,10.15
2023-05-13T09:39:43.275Z,9.25
2023-05-13T09:44:48.957Z,5.32
2023-05-13T09:49:57.798Z,5.65
2023-05-13T09:55:04.763Z,6.18
2023-05-13T10:00:17.875Z,4.97
2023-05-13T10:05:27.649Z,5.65
2023-05-13T10:10:34.352Z,6.03
2023-05-13T10:20:44.179Z,7.45
2023-05-13T10:25:49.502Z,3.53
2023-05-13T10:30:53.936Z,5.15
2023-05-13T10:36:19.846Z,5.32
2023-05-13T10:41:51.146Z,8.60
2023-05-13T10:46:57.939Z,7.78
2023-05-13T10:52:08.526Z,5.20
2023-05-13T10:57:15.094Z,5.15
2023-05-13T11:02:24.750Z,4.90
2023-05-13T11:07:31.943Z,4.40
2023-05-13T11:12:36.028Z,4.40
2023-05-13T11:17:40.157Z,3.25
2023-05-13T11:22:45.610Z,5.50
2023-05-13T11:27:50.228Z,3.85
2023-05-13T11:32:57.315Z,9.48
2023-05-13T11:38:05.772Z,4.40
2023-05-13T11:43:10.873Z,3.65
2023-05-13T11:48:23.397Z,6.35
2023-05-13T11:53:29.179Z,3.55
2023-05-13T11:58:33.966Z,6.73
2023-05-13T12:03:38.084Z,4.15
2023-05-13T12:08:47.049Z,3.08
2023-05-13T12:13:52.937Z,3.03
2023-05-13T12:19:01.439Z,4.13
2023-05-13T12:24:19.472Z,3.38
2023-05-13T12:29:23.542Z,3.95
2023-05-13T12:34:32.814Z,3.15
2023-05-13T12:39:38.520Z,5.43
2023-05-13T12:44:45.188Z,4.93
2023-05-13T12:49:56.848Z,2.92
2023-05-13T12:55:02.326Z,4.40
2023-05-13T13:00:10.055Z,4.57
2023-05-13T13:05:14.425Z,2.90
2023-05-13T13:10:20.302Z,6.93
2023-05-13T13:15:24.512Z,4.87
2023-05-13T13:20:28.630Z,3.28
2023-05-13T13:25:34.232Z,2.45
2023-05-13T13:30:38.294Z,4.28
2023-05-13T13:35:43.447Z,3.65
2023-05-13T13:40:48.963Z,3.13
2023-05-13T13:45:53.016Z,3.72
2023-05-13T13:50:58.556Z,2.30
2023-05-13T13:56:04.179Z,4.07
2023-05-13T14:01:08.318Z,3.60
2023-05-13T14:06:12.446Z,3.05
2023-05-13T14:11:17.849Z,2.80
2023-05-13T14:16:22.006Z,2.28
2023-05-13T14:21:26.135Z,2.67
2023-05-13T14:26:31.845Z,3.08
2023-05-13T14:31:36.963Z,4.07
2023-05-13T14:36:41.173Z,3.85
2023-05-13T14:41:47.192Z,3.72
2023-05-13T14:46:52.027Z,4.20
2023-05-13T14:51:56.417Z,5.38
2023-05-13T14:57:01.843Z,3.58
2023-05-13T15:02:06.584Z,3.13
2023-05-13T15:07:10.842Z,3.70
2023-05-13T15:12:16.264Z,2.28
2023-05-13T15:17:20.476Z,3.75
2023-05-13T15:22:24.529Z,4.35
2023-05-13T15:27:30.040Z,4.68
2023-05-13T15:32:34.442Z,3.33
2023-05-13T15:37:38.721Z,4.35
2023-05-13T15:42:44.147Z,4.82
2023-05-13T15:47:48.359Z,4.53
2023-05-13T15:52:54.532Z,2.47
2023-05-13T15:57:59.966Z,3.75
2023-05-13T16:03:04.240Z,2.38
2023-05-13T16:08:08.317Z,2.80
2023-05-13T16:13:13.772Z,3.63
2023-05-13T16:18:17.893Z,3.65
2023-05-13T16:23:22.050Z,2.63
2023-05-13T16:28:27.678Z,5.88
2023-05-13T16:33:32.445Z,2.03
2023-05-13T16:38:36.533Z,3.25
2023-05-13T16:43:42.061Z,2.85
2023-05-13T16:48:46.269Z,2.10
2023-05-13T16:53:50.548Z,2.60
2023-05-13T16:58:55.903Z,7.13
2023-05-13T17:04:00.057Z,2.10
2023-05-13T17:09:04.592Z,3.50
2023-05-13T17:14:10.090Z,2.20
2023-05-13T17:19:14.208Z,3.25
2023-05-13T17:24:18.286Z,2.35
2023-05-13T17:29:25.665Z,4.95
2023-05-13T17:34:29.660Z,2.60
2023-05-13T17:39:33.763Z,3.28
2023-05-13T17:44:39.215Z,2.85
2023-05-13T17:49:43.430Z,4.82
2023-05-13T17:54:47.519Z,5.55
2023-05-13T17:59:54.083Z,5.00
2023-05-13T18:10:02.063Z,3.60
2023-05-13T18:15:09.080Z,2.60
2023-05-13T18:20:14.136Z,3.35
2023-05-13T18:25:18.377Z,4.60
2023-05-13T18:30:24.215Z,2.80
2023-05-13T18:35:28.613Z,4.73
2023-05-13T18:40:32.641Z,5.20
2023-05-13T18:45:38.128Z,4.53
2023-05-13T18:50:42.184Z,8.32
2023-05-13T18:55:46.740Z,4.88
2023-05-13T19:00:52.570Z,4.63
2023-05-13T19:05:56.909Z,7.17
2023-05-13T19:11:01.153Z,8.13
2023-05-13T19:16:07.210Z,5.13
2023-05-13T19:21:11.324Z,7.37
2023-05-13T19:26:15.738Z,5.95
2023-05-13T19:31:22.214Z,5.57
2023-05-13T19:36:26.355Z,5.27
2023-05-13T19:41:30.422Z,4.07
2023-05-13T19:46:35.977Z,6.22
2023-05-13T19:51:40.067Z,4.85
2023-05-13T19:56:44.128Z,8.38
2023-05-13T20:01:49.571Z,4.38
2023-05-13T20:06:53.779Z,5.10
2023-05-13T20:11:58.604Z,6.40
2023-05-13T20:17:04.385Z,4.90
2023-05-13T20:22:08.377Z,6.40
2023-05-13T20:27:12.625Z,8.20
2023-05-13T20:32:24.419Z,4.10
2023-05-13T20:37:29.553Z,6.78
2023-05-13T20:42:33.648Z,5.78
2023-05-13T20:47:39.042Z,5.90
2023-05-13T20:52:43.120Z,8.43
2023-05-13T20:57:47.135Z,7.68
2023-05-13T21:02:53.243Z,6.75
2023-05-13T21:07:57.428Z,9.17
2023-05-13T21:13:01.844Z,8.75
2023-05-13T21:18:08.315Z,9.80
2023-05-13T21:23:12.407Z,6.03
2023-05-13T21:28:16.474Z,8.15
2023-05-13T21:33:21.890Z,9.48
2023-05-13T21:38:26.897Z,11.68
2023-05-13T21:43:30.966Z,8.70
2023-05-13T21:48:36.400Z,7.28
2023-05-13T21:53:40.625Z,7.78
2023-05-13T21:58:44.717Z,14.98
2023-05-13T22:03:50.204Z,6.53
2023-05-13T22:08:54.332Z,8.45
2023-05-13T22:14:00.143Z,21.92
2023-05-13T22:19:05.632Z,20.67
2023-05-13T22:24:09.843Z,14.55
2023-05-13T22:29:13.925Z,11.02
2023-05-13T22:34:19.351Z,9.45
2023-05-13T22:39:23.408Z,10.38
2023-05-13T22:44:27.541Z,9.35
2023-05-13T22:49:32.942Z,10.07
2023-05-13T22:54:37.082Z,15.05
2023-05-13T22:59:41.084Z,12.07
2023-05-13T23:04:46.464Z,10.65
2023-05-13T23:09:50.549Z,12.45
2023-05-13T23:14:54.696Z,12.18
2023-05-13T23:20:00.162Z,13.13
2023-05-13T23:25:04.658Z,13.57
2023-05-13T23:30:10.546Z,13.82
2023-05-13T23:35:16.110Z,14.40
2023-05-13T23:40:20.572Z,12.50
2023-05-13T23:45:24.656Z,13.98
2023-05-13T23:50:30.114Z,14.15
2023-05-13T23:55:34.180Z,15.32
